Time;durP1;ratioP1;P1;durP2;ratioP2;P2;SDS_P1;SDS_P2;PMS_P1;PMS_P2;Temp;Humidity;BMP_temperature;BMP_pressure;BME280_temperature;BME280_humidity;BME280_pressure;Samples;Min_cycle;Max_cycle;Signal;HPM_P1;HPM_P2
2023/08/23 00:02:57;;;;;;;12.02;10.05;;;20.50;99.90;;;;;;8419929;28;20032;-81
2023/08/23 00:06:57;;;;;;;11.63;10.07;;;20.40;99.90;;;;;;8417771;28;20032;-81
2023/08/23 00:10:58;;;;;;;13.75;10.50;;;20.30;99.90;;;;;;8411038;28;20017;-81
2023/08/23 00:14:58;;;;;;;12.52;10.68;;;20.30;99.90;;;;;;8420203;28;20111;-81
2023/08/23 00:18:59;;;;;;;12.98;10.93;;;20.30;99.90;;;;;;8428105;28;20652;-83
2023/08/23 00:22:59;;;;;;;12.57;11.10;;;20.40;99.90;;;;;;8436788;28;20115;-83
2023/08/23 00:27:00;;;;;;;14.05;11.18;;;20.40;99.90;;;;;;8428915;28;20034;-83
2023/08/23 00:31:00;;;;;;;12.02;10.43;;;20.40;99.90;;;;;;8433060;28;20115;-83
2023/08/23 00:35:01;;;;;;;13.27;10.25;;;20.40;99.90;;;;;;8430530;28;20089;-83
2023/08/23 00:39:02;;;;;;;12.60;10.27;;;20.50;99.90;;;;;;8414763;28;20024;-83
2023/08/23 00:43:06;;;;;;;14.18;10.82;;;20.70;99.90;;;;;;8415354;28;20059;-84
2023/08/23 00:47:07;;;;;;;16.17;10.30;;;20.60;99.90;;;;;;8436348;28;20031;-83
2023/08/23 00:51:09;;;;;;;12.55;10.65;;;20.50;99.90;;;;;;8454651;28;20024;-83
2023/08/23 00:55:09;;;;;;;12.98;10.60;;;20.50;99.90;;;;;;8427480;28;20024;-83
2023/08/23 00:59:10;;;;;;;14.48;11.07;;;20.50;99.90;;;;;;8435866;28;20024;-83
2023/08/23 01:03:11;;;;;;;14.02;9.80;;;20.50;99.90;;;;;;8418113;28;20076;-83
2023/08/23 01:07:16;;;;;;;12.00;9.52;;;20.60;99.90;;;;;;8446487;28;20019;-83
2023/08/23 01:11:30;;;;;;;18.73;10.10;;;20.70;99.90;;;;;;8431705;28;20696;-83
2023/08/23 01:15:33;;;;;;;14.80;9.50;;;20.50;99.90;;;;;;8454219;28;20093;-83
2023/08/23 01:19:46;;;;;;;14.52;10.23;;;20.50;99.90;;;;;;8431043;28;20028;-83
2023/08/23 01:23:46;;;;;;;12.38;10.77;;;20.40;99.90;;;;;;8410729;28;20023;-84
2023/08/23 01:27:47;;;;;;;13.90;10.70;;;20.20;99.90;;;;;;8424004;28;20491;-83
2023/08/23 01:31:51;;;;;;;13.05;11.48;;;20.10;99.90;;;;;;8430744;28;20028;-83
2023/08/23 01:36:10;;;;;;;15.18;10.88;;;20.20;99.90;;;;;;8456404;28;20070;-83
2023/08/23 01:40:11;;;;;;;11.18;10.07;;;20.10;99.90;;;;;;8433330;28;20027;-83
2023/08/23 01:44:12;;;;;;;17.50;10.90;;;20.20;99.90;;;;;;8441424;28;20023;-83
2023/08/23 01:48:12;;;;;;;14.13;10.13;;;20.20;99.90;;;;;;8432887;28;20439;-83
2023/08/23 01:52:13;;;;;;;12.88;10.93;;;20.20;99.90;;;;;;8424533;28;20028;-84
2023/08/23 01:56:13;;;;;;;12.73;9.98;;;20.00;99.90;;;;;;8421937;28;20414;-83
2023/08/23 02:00:14;;;;;;;15.50;11.05;;;20.00;99.90;;;;;;8428469;28;20023;-83
2023/08/23 02:04:17;;;;;;;11.85;10.52;;;19.70;99.90;;;;;;8424155;28;20024;-83
2023/08/23 02:08:17;;;;;;;13.40;11.32;;;19.60;99.90;;;;;;8432057;28;20422;-84
2023/08/23 02:12:18;;;;;;;13.38;11.18;;;19.60;99.90;;;;;;8430926;28;20028;-83
2023/08/23 02:16:19;;;;;;;14.77;11.07;;;19.50;99.90;;;;;;8447785;28;20016;-83
2023/08/23 02:20:19;;;;;;;13.55;12.20;;;19.30;99.90;;;;;;8426729;28;20020;-83
2023/08/23 02:24:20;;;;;;;16.05;11.82;;;19.20;99.90;;;;;;8423335;28;20118;-83
2023/08/23 02:28:20;;;;;;;15.70;12.38;;;19.30;99.90;;;;;;8429820;28;20015;-83
2023/08/23 02:32:21;;;;;;;15.80;13.25;;;19.30;99.90;;;;;;8439678;28;20114;-84
2023/08/23 02:36:21;;;;;;;14.60;12.25;;;19.20;99.90;;;;;;8424013;28;20020;-83
2023/08/23 02:40:22;;;;;;;17.45;11.65;;;19.30;99.90;;;;;;8419310;28;20372;-83
2023/08/23 02:44:22;;;;;;;15.80;13.07;;;19.20;99.90;;;;;;8447705;28;20453;-83
2023/08/23 02:48:23;;;;;;;15.68;14.07;;;19.20;99.90;;;;;;8414213;28;20034;-83
2023/08/23 02:52:23;;;;;;;17.10;13.50;;;19.20;99.90;;;;;;8432164;28;20067;-83
2023/08/23 02:56:24;;;;;;;19.98;13.20;;;19.20;99.90;;;;;;8452178;28;20019;-83
2023/08/23 03:00:24;;;;;;;18.80;13.57;;;19.10;99.90;;;;;;8457673;28;20027;-83
2023/08/23 03:04:25;;;;;;;16.70;13.50;;;19.20;99.90;;;;;;8427703;28;20479;-83
2023/08/23 03:08:26;;;;;;;21.45;15.20;;;19.00;99.90;;;;;;8418070;28;20024;-83
2023/08/23 03:12:27;;;;;;;16.17;13.40;;;19.00;99.90;;;;;;8419118;28;20035;-83
2023/08/23 03:16:27;;;;;;;15.25;13.23;;;18.90;99.90;;;;;;8444937;28;20047;-84
2023/08/23 03:20:28;;;;;;;20.35;12.85;;;18.90;99.90;;;;;;8435691;28;20019;-83
2023/08/23 03:24:28;;;;;;;16.08;13.55;;;18.70;99.90;;;;;;8454162;28;20016;-82
2023/08/23 03:28:29;;;;;;;21.70;14.93;;;18.60;99.90;;;;;;8447144;28;20031;-83
2023/08/23 03:32:29;;;;;;;21.48;14.93;;;18.50;99.90;;;;;;8449408;28;20110;-83
2023/08/23 03:36:30;;;;;;;17.52;12.70;;;18.50;99.90;;;;;;8441276;28;20013;-83
2023/08/23 03:40:37;;;;;;;16.92;13.10;;;18.40;99.90;;;;;;8413579;28;20372;-83
2023/08/23 03:44:37;;;;;;;20.23;15.02;;;18.40;99.90;;;;;;8431568;28;20031;-83
2023/08/23 03:48:38;;;;;;;16.80;13.02;;;18.30;99.90;;;;;;8425572;28;20020;-83
2023/08/23 03:52:38;;;;;;;20.05;16.98;;;18.30;99.90;;;;;;8451593;28;20016;-82
2023/08/23 03:56:39;;;;;;;20.73;16.77;;;18.30;99.90;;;;;;8423897;28;20388;-83
2023/08/23 04:00:39;;;;;;;21.48;15.77;;;18.40;99.90;;;;;;8427487;28;20053;-85
2023/08/23 04:04:40;;;;;;;21.80;16.52;;;18.50;99.90;;;;;;8438815;28;20100;-85
2023/08/23 04:08:40;;;;;;;23.15;14.52;;;18.50;99.90;;;;;;8434196;28;20019;-82
2023/08/23 04:12:41;;;;;;;22.65;15.52;;;18.50;99.90;;;;;;8442107;28;20621;-82
2023/08/23 04:16:41;;;;;;;17.35;13.25;;;18.50;99.90;;;;;;8433537;28;20506;-82
2023/08/23 04:20:42;;;;;;;19.20;15.63;;;18.40;99.90;;;;;;8458564;28;20020;-83
2023/08/23 04:24:42;;;;;;;18.13;16.13;;;18.30;99.90;;;;;;8449070;28;20078;-83
2023/08/23 04:28:43;;;;;;;22.63;14.35;;;18.30;99.90;;;;;;8419381;28;20035;-84
2023/08/23 04:32:44;;;;;;;21.15;15.60;;;18.40;99.90;;;;;;8400586;28;20043;-84
2023/08/23 04:36:44;;;;;;;20.23;14.07;;;18.50;99.90;;;;;;8418020;28;20657;-84
2023/08/23 04:40:45;;;;;;;15.25;13.30;;;18.60;99.90;;;;;;8422704;28;20024;-83
2023/08/23 04:44:45;;;;;;;15.95;13.45;;;18.90;99.90;;;;;;8421955;28;20031;-83
2023/08/23 04:48:46;;;;;;;15.13;12.00;;;19.10;99.90;;;;;;8399612;28;20028;-85
2023/08/23 04:52:46;;;;;;;16.90;12.40;;;19.30;99.90;;;;;;8451910;28;20364;-83
2023/08/23 04:56:47;;;;;;;13.45;11.50;;;19.70;99.90;;;;;;8413004;28;20023;-83
2023/08/23 05:00:48;;;;;;;15.10;11.70;;;20.00;99.90;;;;;;8438475;22;20098;-79
2023/08/23 05:04:49;;;;;;;13.55;11.18;;;20.20;99.90;;;;;;8278520;28;20033;-79
2023/08/23 05:08:49;;;;;;;12.73;10.35;;;20.40;99.90;;;;;;8347503;28;20026;-80
2023/08/23 05:12:51;;;;;;;13.07;10.60;;;20.40;99.90;;;;;;8311990;28;20125;-79
2023/08/23 05:16:52;;;;;;;13.93;11.23;;;20.30;99.90;;;;;;8306962;28;20027;-79
2023/08/23 05:20:59;;;;;;;12.82;10.93;;;20.40;99.90;;;;;;8304409;28;20026;-80
2023/08/23 05:24:59;;;;;;;11.57;10.00;;;20.40;99.90;;;;;;8243171;28;20019;-79
2023/08/23 05:29:00;;;;;;;13.57;11.73;;;20.50;99.90;;;;;;8234301;28;20088;-79
2023/08/23 05:33:00;;;;;;;14.05;11.25;;;20.70;99.90;;;;;;8226029;28;20035;-79
2023/08/23 05:37:01;;;;;;;13.90;10.35;;;21.20;99.90;;;;;;8304590;28;20422;-78
2023/08/23 05:41:02;;;;;;;13.02;10.88;;;21.50;99.90;;;;;;8307282;28;20018;-78
2023/08/23 05:45:03;;;;;;;11.73;10.43;;;21.30;99.90;;;;;;8238223;28;20031;-79
2023/08/23 05:49:03;;;;;;;16.55;9.95;;;21.30;99.90;;;;;;8302842;28;20069;-78
2023/08/23 05:53:09;;;;;;;12.60;9.63;;;21.40;99.90;;;;;;8308766;28;20027;-77
2023/08/23 05:57:10;;;;;;;13.38;10.02;;;21.80;99.90;;;;;;8306975;28;20071;-78
2023/08/23 06:01:10;;;;;;;11.35;9.60;;;22.30;99.90;;;;;;8307156;28;20031;-79
2023/08/23 06:05:13;;;;;;;15.98;10.65;;;22.70;99.90;;;;;;8312946;28;20048;-78
2023/08/23 06:09:14;;;;;;;11.10;9.07;;;22.90;99.90;;;;;;8304638;28;20054;-80
2023/08/23 06:13:15;;;;;;;13.18;8.82;;;23.60;99.90;;;;;;8291192;28;20030;-79
2023/08/23 06:17:16;;;;;;;10.07;9.02;;;24.00;99.90;;;;;;8295616;28;20019;-80
2023/08/23 06:21:17;;;;;;;11.57;8.80;;;24.40;99.90;;;;;;8301090;28;20395;-80
2023/08/23 06:25:17;;;;;;;10.45;8.48;;;24.20;99.90;;;;;;8327473;28;20173;-79
2023/08/23 06:29:18;;;;;;;10.50;8.88;;;23.90;99.90;;;;;;8314595;28;20100;-80
2023/08/23 06:33:18;;;;;;;12.00;9.00;;;23.80;99.90;;;;;;8325913;28;20475;-79
2023/08/23 06:37:21;;;;;;;10.32;8.82;;;23.60;99.90;;;;;;8317477;28;20047;-78
2023/08/23 06:41:22;;;;;;;13.25;8.98;;;23.80;99.90;;;;;;8247950;28;20019;-80
2023/08/23 06:45:22;;;;;;;11.48;7.72;;;24.40;99.90;;;;;;8331784;28;20033;-80
2023/08/23 06:49:23;;;;;;;13.95;8.15;;;25.00;99.90;;;;;;8318554;28;20019;-80
2023/08/23 06:53:23;;;;;;;10.70;7.22;;;25.90;99.90;;;;;;8315309;28;20022;-80
2023/08/23 06:57:30;;;;;;;12.40;7.75;;;26.70;99.90;;;;;;8249700;28;20022;-80
2023/08/23 07:01:31;;;;;;;8.75;6.95;;;27.30;99.90;;;;;;8318119;28;20030;-80
2023/08/23 07:05:35;;;;;;;9.90;7.22;;;28.10;99.90;;;;;;8325425;28;20023;-80
2023/08/23 07:09:35;;;;;;;7.72;6.70;;;28.10;99.90;;;;;;8316479;28;20034;-80
2023/08/23 07:13:38;;;;;;;9.55;6.80;;;28.10;99.90;;;;;;8312433;28;20497;-80
2023/08/23 07:17:38;;;;;;;7.78;6.60;;;28.20;99.90;;;;;;8245712;28;20474;-80
2023/08/23 07:21:39;;;;;;;9.40;6.65;;;28.60;99.90;;;;;;8316774;28;20022;-80
2023/08/23 07:25:42;;;;;;;7.57;6.63;;;28.70;99.90;;;;;;8312920;28;20022;-80
2023/08/23 07:29:42;;;;;;;9.05;6.20;;;28.80;99.90;;;;;;8312387;28;20034;-80
2023/08/23 07:33:43;;;;;;;6.75;5.88;;;28.80;99.90;;;;;;8245167;28;20023;-80
2023/08/23 07:37:43;;;;;;;11.20;6.50;;;28.90;99.90;;;;;;8310184;28;20402;-81
2023/08/23 07:41:44;;;;;;;14.63;6.50;;;29.40;99.90;;;;;;8310154;28;20019;-80
2023/08/23 07:45:44;;;;;;;9.05;5.93;;;29.90;99.90;;;;;;8243056;28;20029;-80
2023/08/23 07:49:45;;;;;;;7.00;6.38;;;30.10;99.90;;;;;;8238766;28;20027;-80
2023/08/23 07:53:46;;;;;;;7.60;6.05;;;30.00;99.90;;;;;;8243108;28;20034;-80
2023/08/23 07:57:47;;;;;;;7.15;5.82;;;30.20;99.90;;;;;;8248031;28;20046;-80
2023/08/23 08:01:48;;;;;;;10.45;6.03;;;30.50;99.90;;;;;;8309089;28;20030;-81
2023/08/23 08:05:48;;;;;;;6.10;5.05;;;30.30;99.90;;;;;;8313970;28;20093;-80
2023/08/23 08:09:49;;;;;;;9.15;5.80;;;30.30;99.90;;;;;;8242078;28;20030;-80
2023/08/23 08:13:49;;;;;;;8.07;5.80;;;30.40;99.90;;;;;;8305715;28;20035;-80
2023/08/23 08:17:51;;;;;;;7.38;5.38;;;30.40;99.90;;;;;;8242982;28;20026;-80
2023/08/23 08:21:53;;;;;;;7.72;4.63;;;30.80;99.90;;;;;;8243002;28;20398;-79
2023/08/23 08:25:54;;;;;;;8.60;5.30;;;30.60;99.90;;;;;;8297825;28;20114;-81
2023/08/23 08:29:54;;;;;;;11.18;4.60;;;30.70;99.90;;;;;;8308710;28;20034;-81
2023/08/23 08:33:56;;;;;;;4.72;4.32;;;31.20;99.90;;;;;;8305016;28;20015;-81
2023/08/23 08:37:57;;;;;;;6.53;4.75;;;31.90;99.90;;;;;;8241574;28;20022;-81
2023/08/23 08:41:59;;;;;;;6.60;4.78;;;32.30;99.90;;;;;;8304528;28;20027;-81
2023/08/23 08:46:01;;;;;;;9.48;4.50;;;32.60;99.90;;;;;;8242022;28;20105;-81
2023/08/23 08:50:01;;;;;;;9.40;5.35;;;32.10;99.90;;;;;;8308783;28;20035;-81
2023/08/23 08:54:05;;;;;;;6.47;5.25;;;31.60;99.90;;;;;;8300842;28;20031;-79
2023/08/23 08:58:08;;;;;;;9.35;5.47;;;31.30;99.90;;;;;;8300453;28;20022;-81
2023/08/23 09:02:15;;;;;;;9.38;5.93;;;31.10;99.90;;;;;;8297512;28;20031;-80
2023/08/23 09:06:15;;;;;;;5.22;4.72;;;30.90;99.90;;;;;;8312815;28;20068;-80
2023/08/23 09:10:17;;;;;;;6.88;4.93;;;31.10;99.90;;;;;;8303601;28;20030;-79
2023/08/23 09:14:20;;;;;;;9.52;5.18;;;31.00;99.90;;;;;;8307430;28;20023;-80
2023/08/23 09:18:20;;;;;;;7.20;5.40;;;31.20;99.90;;;;;;8304096;28;20022;-80
2023/08/23 09:22:21;;;;;;;10.15;5.45;;;31.50;99.90;;;;;;8236471;28;20049;-80
2023/08/23 09:26:22;;;;;;;6.65;4.72;;;31.60;99.90;;;;;;8304100;28;20026;-80
2023/08/23 09:30:23;;;;;;;7.72;4.80;;;31.90;99.90;;;;;;8303377;28;20019;-80
2023/08/23 09:34:24;;;;;;;6.40;4.93;;;32.10;99.90;;;;;;8299054;28;20084;-80
2023/08/23 09:38:24;;;;;;;7.78;5.07;;;31.90;99.90;;;;;;8298075;28;20023;-80
2023/08/23 09:42:26;;;;;;;5.82;5.28;;;31.50;99.90;;;;;;8296091;28;20685;-80
2023/08/23 09:46:27;;;;;;;7.45;4.90;;;31.70;99.90;;;;;;8238832;28;20027;-80
2023/08/23 09:50:28;;;;;;;6.05;4.38;;;31.80;99.90;;;;;;8302048;28;20034;-80
2023/08/23 09:54:41;;;;;;;7.63;4.85;;;31.90;99.90;;;;;;8238213;28;20035;-80
2023/08/23 09:58:42;;;;;;;5.22;4.70;;;32.00;99.90;;;;;;8299319;28;20041;-80
2023/08/23 10:02:45;;;;;;;8.73;4.88;;;32.10;99.90;;;;;;8239851;28;20032;-80
2023/08/23 10:06:47;;;;;;;5.82;4.53;;;31.80;99.90;;;;;;8235027;28;20483;-80
2023/08/23 10:10:50;;;;;;;5.90;4.70;;;32.00;99.90;;;;;;8306239;28;20023;-81
2023/08/23 10:14:53;;;;;;;5.90;4.65;;;32.40;99.90;;;;;;8298376;28;20491;-80
2023/08/23 10:18:55;;;;;;;9.38;5.00;;;32.40;99.90;;;;;;8301798;28;20390;-80
2023/08/23 10:22:56;;;;;;;6.68;4.85;;;32.60;99.90;;;;;;8305076;28;20041;-79
2023/08/23 10:27:06;;;;;;;6.65;4.53;;;33.20;99.90;;;;;;8233412;28;20019;-80
2023/08/23 10:31:09;;;;;;;6.82;4.32;;;33.50;99.90;;;;;;8237037;28;20106;-81
2023/08/23 10:35:41;;;;;;;6.57;4.70;;;34.20;99.90;;;;;;8302304;28;20031;-81
2023/08/23 10:39:53;;;;;;;6.15;4.43;;;34.80;99.90;;;;;;8294720;28;20062;-80
2023/08/23 10:43:54;;;;;;;7.22;4.65;;;34.70;99.90;;;;;;8297962;28;20038;-80
2023/08/23 10:47:55;;;;;;;6.82;4.18;;;33.80;99.90;;;;;;8232827;28;20050;-80
2023/08/23 10:51:56;;;;;;;8.50;4.32;;;34.10;99.90;;;;;;8300073;28;20114;-80
2023/08/23 10:56:01;;;;;;;8.60;4.55;;;34.40;99.90;;;;;;8302196;28;20030;-80
2023/08/23 11:00:03;;;;;;;8.25;4.30;;;33.80;99.90;;;;;;8234124;28;20029;-80
2023/08/23 11:04:07;;;;;;;8.90;4.32;;;33.60;99.90;;;;;;8448595;22;20419;-81
2023/08/23 11:08:08;;;;;;;6.07;4.53;;;33.90;99.90;;;;;;8455543;28;20028;-81
2023/08/23 11:12:09;;;;;;;9.23;4.47;;;34.80;99.90;;;;;;8409904;28;20115;-81
2023/08/23 11:16:11;;;;;;;6.43;4.13;;;34.70;99.90;;;;;;8392972;28;20020;-81
2023/08/23 11:20:13;;;;;;;6.05;3.85;;;34.80;99.90;;;;;;8407226;28;20016;-81
2023/08/23 11:24:14;;;;;;;6.88;4.38;;;34.60;98.50;;;;;;8381265;28;20055;-81
2023/08/23 11:28:16;;;;;;;4.78;4.10;;;35.00;98.60;;;;;;8392705;28;20025;-80
2023/08/23 11:32:17;;;;;;;7.43;4.47;;;35.10;98.40;;;;;;8409551;28;20052;-80
2023/08/23 11:36:18;;;;;;;9.20;4.43;;;34.70;99.10;;;;;;8389057;28;20047;-80
2023/08/23 11:40:22;;;;;;;4.85;4.13;;;35.00;99.90;;;;;;8398736;28;20104;-80
2023/08/23 11:44:22;;;;;;;6.53;4.55;;;36.50;98.20;;;;;;8412151;28;20043;-81
2023/08/23 11:48:26;;;;;;;6.28;4.38;;;37.50;95.10;;;;;;8382924;28;20017;-81
2023/08/23 11:52:30;;;;;;;6.68;4.47;;;38.10;93.30;;;;;;8405935;28;20028;-80
2023/08/23 11:56:32;;;;;;;5.30;4.20;;;37.90;91.80;;;;;;8386284;28;20043;-82
2023/08/23 12:00:33;;;;;;;4.70;4.28;;;38.10;92.30;;;;;;8393229;28;20020;-81
2023/08/23 12:04:33;;;;;;;7.78;4.45;;;38.80;91.70;;;;;;8400930;28;20034;-81
2023/08/23 12:08:34;;;;;;;8.43;4.53;;;38.80;91.10;;;;;;8397211;28;20031;-81
2023/08/23 12:12:35;;;;;;;5.30;4.40;;;39.40;87.10;;;;;;8388853;28;20025;-81
2023/08/23 12:16:36;;;;;;;5.97;4.13;;;39.30;84.00;;;;;;8389547;28;20108;-81
2023/08/23 12:20:37;;;;;;;6.38;4.80;;;39.00;81.60;;;;;;8390364;28;20024;-81
2023/08/23 12:24:37;;;;;;;6.70;4.35;;;38.40;86.00;;;;;;8383958;28;20055;-81
2023/08/23 12:28:38;;;;;;;6.43;5.00;;;36.40;90.70;;;;;;8407586;28;21699;-79
2023/08/23 12:32:38;;;;;;;6.28;5.05;;;36.40;92.10;;;;;;8411736;28;20032;-80
2023/08/23 12:36:39;;;;;;;10.23;5.00;;;36.10;91.80;;;;;;8391269;28;20024;-81
2023/08/23 12:40:40;;;;;;;8.25;4.82;;;36.40;91.20;;;;;;8401780;28;20016;-80
2023/08/23 12:44:40;;;;;;;8.82;4.53;;;37.20;89.40;;;;;;8402446;28;20073;-81
2023/08/23 12:48:40;;;;;;;6.32;4.75;;;38.10;89.60;;;;;;8390092;28;20033;-81
2023/08/23 12:52:41;;;;;;;7.53;4.57;;;38.00;84.90;;;;;;8380174;28;20016;-81
2023/08/23 12:56:42;;;;;;;5.75;4.55;;;38.00;89.90;;;;;;8406041;28;20016;-80
2023/08/23 13:00:42;;;;;;;5.97;4.57;;;39.20;86.20;;;;;;8402782;28;20052;-81
2023/08/23 13:04:43;;;;;;;7.63;4.35;;;38.90;81.00;;;;;;8400192;28;20048;-81
2023/08/23 13:08:43;;;;;;;8.02;5.03;;;39.30;81.00;;;;;;8386673;28;20500;-81
2023/08/23 13:12:44;;;;;;;6.18;4.38;;;39.70;77.70;;;;;;8387187;28;20027;-81
2023/08/23 13:16:45;;;;;;;5.65;4.03;;;39.80;80.00;;;;;;8382983;28;20024;-81
2023/08/23 13:20:46;;;;;;;7.72;4.60;;;40.50;78.40;;;;;;8394630;28;20135;-81
2023/08/23 13:24:48;;;;;;;5.63;4.20;;;40.10;76.00;;;;;;8406384;28;20008;-82
2023/08/23 13:28:49;;;;;;;5.32;4.20;;;40.70;75.80;;;;;;8408824;28;20020;-81
2023/08/23 13:32:49;;;;;;;6.70;4.07;;;41.10;73.00;;;;;;8400634;28;20028;-80
2023/08/23 13:36:50;;;;;;;7.53;4.47;;;39.50;75.80;;;;;;8408382;28;20233;-80
2023/08/23 13:40:50;;;;;;;5.80;4.22;;;38.30;82.60;;;;;;8394104;28;20016;-80
2023/08/23 13:44:51;;;;;;;5.72;4.70;;;37.10;84.30;;;;;;8412308;28;20104;-80
2023/08/23 13:48:51;;;;;;;7.05;4.53;;;35.90;85.70;;;;;;8409866;28;20256;-81
2023/08/23 13:52:52;;;;;;;8.82;5.05;;;36.50;87.20;;;;;;8404359;28;20027;-80
2023/08/23 13:56:52;;;;;;;6.25;4.38;;;37.00;84.80;;;;;;8381737;28;20020;-81
2023/08/23 14:00:53;;;;;;;8.15;4.80;;;38.30;82.90;;;;;;8381685;28;20016;-81
2023/08/23 14:04:53;;;;;;;6.90;4.43;;;36.40;85.70;;;;;;8394892;28;20115;-80
2023/08/23 14:08:54;;;;;;;8.25;4.53;;;35.40;86.40;;;;;;8384439;28;20076;-80
2023/08/23 14:12:54;;;;;;;5.35;4.40;;;37.10;89.20;;;;;;8381118;28;20031;-81
2023/08/23 14:16:55;;;;;;;9.00;4.60;;;37.80;82.40;;;;;;8384933;28;20035;-81
2023/08/23 14:20:56;;;;;;;5.75;4.50;;;38.60;80.50;;;;;;8388682;28;20020;-81
2023/08/23 14:24:56;;;;;;;10.02;4.72;;;38.50;79.40;;;;;;8399278;28;20036;-81
2023/08/23 14:28:57;;;;;;;7.13;4.32;;;39.00;77.30;;;;;;8378778;28;20033;-81
2023/08/23 14:32:57;;;;;;;5.50;4.22;;;39.00;75.20;;;;;;8389211;28;20043;-80
2023/08/23 14:36:58;;;;;;;8.18;4.85;;;40.00;74.70;;;;;;8380482;28;20074;-81
2023/08/23 14:40:59;;;;;;;5.95;4.18;;;40.60;67.70;;;;;;8384654;28;20055;-80
2023/08/23 14:44:59;;;;;;;8.30;4.50;;;39.60;71.20;;;;;;8387030;28;20416;-81
2023/08/23 14:49:00;;;;;;;7.45;4.35;;;36.30;78.70;;;;;;8408685;28;20027;-81
2023/08/23 14:53:00;;;;;;;5.82;4.65;;;37.40;82.10;;;;;;8387157;28;20496;-80
2023/08/23 14:57:01;;;;;;;10.75;3.63;;;39.50;72.20;;;;;;8401603;28;20024;-82
2023/08/23 15:01:01;;;;;;;5.28;4.45;;;38.80;71.00;;;;;;8401599;28;20096;-81
2023/08/23 15:05:02;;;;;;;8.38;4.35;;;37.60;78.00;;;;;;8401250;28;20454;-81
2023/08/23 15:09:04;;;;;;;7.80;4.90;;;36.60;78.90;;;;;;8394354;28;20396;-80
2023/08/23 15:13:04;;;;;;;4.97;4.32;;;36.30;83.20;;;;;;8393457;28;20028;-81
2023/08/23 15:17:05;;;;;;;9.15;4.97;;;35.40;84.00;;;;;;8386480;28;20508;-81
2023/08/23 15:21:05;;;;;;;8.32;4.63;;;35.10;85.50;;;;;;8386544;28;20012;-80
2023/08/23 15:25:06;;;;;;;10.75;4.82;;;34.10;86.30;;;;;;8404509;28;20060;-81
2023/08/23 15:29:07;;;;;;;7.75;4.40;;;35.70;85.30;;;;;;8393721;28;20244;-80
2023/08/23 15:33:08;;;;;;;7.00;4.47;;;36.20;83.10;;;;;;8394220;28;20382;-80
2023/08/23 15:37:08;;;;;;;6.22;4.60;;;36.40;82.70;;;;;;8406675;28;20020;-81
2023/08/23 15:41:09;;;;;;;7.30;5.00;;;36.00;82.00;;;;;;8394163;28;20025;-81
2023/08/23 15:45:10;;;;;;;13.48;5.38;;;34.70;83.90;;;;;;8389063;28;20044;-81
2023/08/23 15:49:10;;;;;;;10.10;4.72;;;32.80;90.80;;;;;;8403297;28;20028;-81
2023/08/23 15:53:11;;;;;;;6.95;4.60;;;33.70;90.80;;;;;;8387608;28;20020;-81
2023/08/23 15:57:12;;;;;;;8.05;4.90;;;33.60;90.40;;;;;;8394534;28;20466;-81
2023/08/23 16:01:12;;;;;;;9.07;4.68;;;32.60;90.70;;;;;;8384963;28;20505;-81
2023/08/23 16:05:13;;;;;;;9.20;4.60;;;32.20;92.50;;;;;;8398991;28;20043;-79
2023/08/23 16:09:13;;;;;;;7.55;4.90;;;31.90;92.50;;;;;;8400574;28;20016;-80
2023/08/23 16:13:15;;;;;;;7.00;4.65;;;31.90;94.20;;;;;;8388248;28;20049;-80
2023/08/23 16:17:15;;;;;;;10.40;4.85;;;31.50;94.40;;;;;;8390733;28;20534;-84
2023/08/23 16:21:16;;;;;;;6.90;4.25;;;30.70;93.90;;;;;;8397505;28;20016;-81
2023/08/23 16:25:16;;;;;;;7.47;4.30;;;30.40;94.40;;;;;;8392964;28;20077;-82
2023/08/23 16:29:17;;;;;;;8.18;4.50;;;30.20;94.90;;;;;;8394109;28;20484;-81
2023/08/23 16:33:18;;;;;;;5.65;4.90;;;30.20;96.00;;;;;;8384683;28;20066;-81
2023/08/23 16:37:18;;;;;;;9.82;4.88;;;30.20;96.80;;;;;;8391369;28;20017;-81
2023/08/23 16:41:19;;;;;;;6.22;4.20;;;30.10;96.40;;;;;;8390708;28;20028;-81
2023/08/23 16:45:21;;;;;;;7.20;4.95;;;29.80;96.40;;;;;;8394108;28;20043;-81
2023/08/23 16:49:21;;;;;;;5.70;4.55;;;29.70;96.60;;;;;;8377716;28;20029;-81
2023/08/23 16:53:22;;;;;;;11.07;5.10;;;29.60;96.70;;;;;;8380207;28;20511;-81
2023/08/23 16:57:23;;;;;;;11.50;4.93;;;29.70;96.10;;;;;;8388823;28;20500;-81
2023/08/23 17:01:23;;;;;;;6.13;4.45;;;29.60;96.50;;;;;;8401874;28;20074;-83
2023/08/23 17:05:24;;;;;;;8.40;4.55;;;29.50;97.60;;;;;;8393664;28;20565;-84
2023/08/23 17:09:24;;;;;;;9.05;4.53;;;29.30;97.30;;;;;;8421824;28;20016;-82
2023/08/23 17:13:25;;;;;;;6.30;4.40;;;29.00;96.80;;;;;;8385541;28;20038;-82
2023/08/23 17:17:26;;;;;;;7.65;4.55;;;28.70;99.10;;;;;;8400573;28;20023;-83
2023/08/23 17:21:27;;;;;;;8.30;4.70;;;28.40;99.90;;;;;;8423396;28;20024;-83
2023/08/23 17:25:28;;;;;;;10.32;4.53;;;28.10;99.90;;;;;;8404656;28;20439;-83
2023/08/23 17:29:29;;;;;;;5.60;4.80;;;28.00;99.90;;;;;;8390052;28;20024;-82
2023/08/23 17:33:30;;;;;;;7.55;5.07;;;28.00;99.90;;;;;;8395848;28;20028;-82
2023/08/23 17:37:31;;;;;;;5.93;4.57;;;27.50;99.90;;;;;;8415356;28;20119;-82
2023/08/23 17:41:32;;;;;;;6.55;5.50;;;27.10;99.90;;;;;;8399836;28;20028;-82
2023/08/23 17:45:32;;;;;;;8.05;5.70;;;26.70;99.90;;;;;;8392404;28;20032;-82
2023/08/23 17:49:33;;;;;;;6.95;5.38;;;26.60;99.90;;;;;;8389970;28;20029;-82
2023/08/23 17:53:34;;;;;;;9.85;6.10;;;26.30;99.90;;;;;;8392647;28;20180;-81
2023/08/23 17:57:34;;;;;;;6.78;5.43;;;26.00;99.90;;;;;;8410065;28;20097;-83
2023/08/23 18:01:35;;;;;;;11.55;5.28;;;25.70;99.90;;;;;;8419207;28;20488;-83
2023/08/23 18:05:36;;;;;;;6.88;5.57;;;25.50;99.90;;;;;;8399595;28;20056;-82
2023/08/23 18:09:36;;;;;;;9.98;5.68;;;25.30;99.90;;;;;;8394729;28;20027;-83
2023/08/23 18:13:37;;;;;;;9.00;5.72;;;25.20;99.90;;;;;;8408853;28;20519;-82
2023/08/23 18:17:37;;;;;;;8.65;5.43;;;25.10;99.90;;;;;;8403926;28;20098;-82
2023/08/23 18:21:38;;;;;;;8.05;5.82;;;25.00;99.90;;;;;;8395197;28;20024;-82
2023/08/23 18:25:39;;;;;;;8.48;5.88;;;24.90;99.90;;;;;;8401682;28;20028;-82
2023/08/23 18:29:39;;;;;;;10.00;6.15;;;24.80;99.90;;;;;;8390780;28;20020;-81
2023/08/23 18:33:40;;;;;;;7.53;5.90;;;24.60;99.90;;;;;;8388061;28;20035;-80
2023/08/23 18:37:40;;;;;;;9.68;5.88;;;24.30;99.90;;;;;;8397355;28;20025;-81
2023/08/23 18:41:41;;;;;;;7.72;5.93;;;24.20;99.90;;;;;;8392722;28;20054;-82
2023/08/23 18:45:41;;;;;;;11.40;6.30;;;24.20;99.90;;;;;;8393248;28;20082;-81
2023/08/23 18:49:42;;;;;;;8.93;6.05;;;24.00;99.90;;;;;;8394680;28;20031;-81
2023/08/23 18:53:43;;;;;;;8.45;5.75;;;24.00;99.90;;;;;;8399690;28;20062;-82
2023/08/23 18:57:48;;;;;;;7.20;5.88;;;24.10;99.90;;;;;;8415538;28;20016;-82
2023/08/23 19:01:48;;;;;;;6.55;5.72;;;24.10;99.90;;;;;;8396925;28;20032;-82
2023/08/23 19:05:52;;;;;;;11.80;6.57;;;24.00;99.90;;;;;;8393307;28;20487;-82
2023/08/23 19:09:55;;;;;;;6.45;5.55;;;23.90;99.90;;;;;;8412410;28;20385;-81
2023/08/23 19:13:56;;;;;;;8.77;5.65;;;23.60;99.90;;;;;;8410175;28;20024;-82
2023/08/23 19:17:56;;;;;;;6.82;6.05;;;23.50;99.90;;;;;;8405001;28;20028;-81
2023/08/23 19:21:57;;;;;;;12.00;6.70;;;23.30;99.90;;;;;;8390011;28;20016;-81
2023/08/23 19:25:57;;;;;;;10.25;6.75;;;23.10;99.90;;;;;;8394863;28;20020;-84
2023/08/23 19:29:58;;;;;;;6.57;5.90;;;23.00;99.90;;;;;;8405405;28;20032;-83
2023/08/23 19:34:01;;;;;;;9.23;6.20;;;22.80;99.90;;;;;;8415571;28;20032;-83
2023/08/23 19:38:02;;;;;;;9.65;6.60;;;22.80;99.90;;;;;;8403469;28;20027;-83
2023/08/23 19:42:03;;;;;;;9.20;6.75;;;22.70;99.90;;;;;;8410691;28;20119;-83
2023/08/23 19:46:04;;;;;;;8.40;6.18;;;22.60;99.90;;;;;;8432449;28;20023;-83
2023/08/23 19:50:05;;;;;;;9.55;6.38;;;22.50;99.90;;;;;;8405541;28;20381;-83
2023/08/23 19:54:06;;;;;;;7.18;6.47;;;22.40;99.90;;;;;;8385645;28;20016;-83
2023/08/23 19:58:07;;;;;;;6.60;5.95;;;22.10;99.90;;;;;;8389058;28;20392;-83
2023/08/23 20:02:08;;;;;;;7.90;6.03;;;22.00;99.90;;;;;;8389464;28;20515;-83
2023/08/23 20:06:09;;;;;;;7.10;6.30;;;22.00;99.90;;;;;;8417973;28;20103;-83
2023/08/23 20:10:10;;;;;;;9.95;6.28;;;22.00;99.90;;;;;;8409479;28;20024;-83
2023/08/23 20:14:10;;;;;;;8.68;6.38;;;21.90;99.90;;;;;;8399657;28;20491;-83
2023/08/23 20:18:11;;;;;;;8.40;6.57;;;21.70;99.90;;;;;;8406381;28;20024;-84
2023/08/23 20:22:11;;;;;;;19.67;7.45;;;21.60;99.90;;;;;;8400989;28;20066;-83
2023/08/23 20:26:12;;;;;;;10.18;7.57;;;21.40;99.90;;;;;;8395177;28;20023;-83
2023/08/23 20:30:13;;;;;;;11.52;7.03;;;21.30;99.90;;;;;;8421390;28;20444;-85
2023/08/23 20:34:13;;;;;;;7.20;6.50;;;21.40;99.90;;;;;;8389946;28;20020;-83
2023/08/23 20:38:14;;;;;;;11.70;6.90;;;21.40;99.90;;;;;;8386987;28;20052;-82
2023/08/23 20:42:15;;;;;;;8.10;7.05;;;21.40;99.90;;;;;;8386113;28;20048;-83
2023/08/23 20:46:15;;;;;;;11.50;7.25;;;21.30;99.90;;;;;;8395415;28;20070;-83